Time;durP1;ratioP1;P1;durP2;ratioP2;P2;SDS_P1;SDS_P2;PMS_P1;PMS_P2;Temp;Humidity;BMP_temperature;BMP_pressure;BME280_temperature;BME280_humidity;BME280_pressure;Samples;Min_cycle;Max_cycle;Signal;HPM_P1;HPM_P2
2021/12/31 00:00:34;;;;;;;;;;;12.50;99.90;;;11.39;100.00;96346.47;10320952;28;1981;-76
2021/12/31 00:05:37;;;;;;;;;;;12.50;99.90;;;11.47;100.00;96335.19;10321821;28;1830;-75
2021/12/31 00:10:41;;;;;;;;;;;12.50;99.90;;;11.43;100.00;96327.91;10309257;28;1955;-75
2021/12/31 00:15:44;;;;;;;;;;;12.50;99.90;;;11.44;100.00;96327.63;10321792;28;1863;-75
2021/12/31 00:20:48;;;;;;;;;;;12.50;99.90;;;11.44;100.00;96329.50;10319814;28;1906;-74
2021/12/31 00:25:51;;;;;;;;;;;12.50;99.90;;;11.45;100.00;96333.81;10322031;28;1919;-75
2021/12/31 00:30:56;;;;;;;;;;;12.50;99.90;;;11.46;100.00;96346.22;10322601;28;1844;-75
2021/12/31 00:35:59;;;;;;;;;;;12.50;99.90;;;11.47;100.00;96342.47;10321429;28;1848;-76
2021/12/31 00:41:03;;;;;;;;;;;12.50;99.90;;;11.47;100.00;96347.84;10319642;28;2373;-74
2021/12/31 00:46:06;;;;;;;;;;;12.50;99.90;;;11.43;100.00;96346.75;10313910;28;1813;-75
2021/12/31 00:51:10;;;;;;;;;;;12.50;99.90;;;11.46;100.00;96336.28;10314825;28;1844;-74
2021/12/31 00:56:14;;;;;;;;;;;12.50;99.90;;;11.41;100.00;96338.13;10314675;28;1915;-75
2021/12/31 01:01:20;;;;;;;;;;;12.50;99.90;;;11.38;100.00;96336.75;10315080;28;1989;-76
2021/12/31 01:06:24;;;;;;;;;;;12.50;99.90;;;11.36;100.00;96337.03;10317966;28;1884;-74
2021/12/31 01:11:28;;;;;;;;;;;12.50;99.90;;;11.40;100.00;96342.72;10316284;28;1793;-75
2021/12/31 01:16:38;;;;;;;;;;;12.50;99.90;;;11.44;100.00;96351.03;10317548;28;1956;-75
2021/12/31 01:21:42;;;;;;;;;;;12.50;99.90;;;11.42;100.00;96358.59;10312692;28;1969;-75
2021/12/31 01:26:46;;;;;;;;;;;12.50;99.90;;;11.40;100.00;96358.88;10307131;28;1889;-73
2021/12/31 01:31:51;;;;;;;;;;;12.50;99.90;;;11.38;100.00;96340.25;10318106;28;1941;-76
2021/12/31 01:36:54;;;;;;;;;;;12.50;99.90;;;11.38;100.00;96352.91;10319166;28;1879;-76
2021/12/31 01:41:58;;;;;;;;;;;12.50;99.90;;;11.43;100.00;96357.50;10318071;28;1966;-75
2021/12/31 01:47:04;;;;;;;;;;;12.50;99.90;;;11.42;100.00;96359.41;10320655;28;1948;-75
2021/12/31 01:52:07;;;;;;;;;;;12.50;99.90;;;11.36;100.00;96353.19;10316611;28;1869;-74
2021/12/31 01:57:11;;;;;;;;;;;12.50;99.90;;;11.35;100.00;96351.56;10313856;28;1998;-74
2021/12/31 02:02:15;;;;;;;;;;;12.40;99.90;;;11.37;100.00;96352.09;10317208;28;2004;-74
2021/12/31 02:07:18;;;;;;;;;;;12.40;99.90;;;11.38;100.00;96355.59;10317279;28;1937;-75
2021/12/31 02:12:22;;;;;;;;;;;12.40;99.90;;;11.30;100.00;96348.84;10314020;28;1965;-76
2021/12/31 02:17:25;;;;;;;;;;;12.40;99.90;;;11.41;100.00;96355.09;10317170;28;2084;-74
2021/12/31 02:22:29;;;;;;;;;;;12.40;99.90;;;11.33;100.00;96353.72;10336911;28;2052;-75
2021/12/31 02:27:32;;;;;;;;;;;12.40;99.90;;;11.37;100.00;96362.88;10348421;28;1877;-76
2021/12/31 02:32:36;;;;;;;;;;;12.40;99.90;;;11.33;100.00;96359.09;10349922;28;1960;-75
2021/12/31 02:37:39;;;;;;;;;;;12.40;99.90;;;11.27;100.00;96360.16;10349081;28;2007;-75
2021/12/31 02:42:43;;;;;;;;;;;12.40;99.90;;;11.30;100.00;96359.63;10347742;28;1977;-74
2021/12/31 02:47:46;;;;;;;;;;;12.40;99.90;;;11.35;100.00;96351.56;10334657;28;1969;-74
2021/12/31 02:52:49;;;;;;;;;;;12.40;99.90;;;11.40;100.00;96347.28;10323203;28;1994;-75
2021/12/31 02:57:52;;;;;;;;;;;12.40;99.90;;;11.26;100.00;96346.94;10324613;28;1929;-75
2021/12/31 03:02:56;;;;;;;;;;;12.40;99.90;;;11.27;100.00;96345.91;10319850;28;2072;-75
2021/12/31 03:08:00;;;;;;;;;;;12.40;99.90;;;11.27;100.00;96343.22;10331185;28;1956;-76
2021/12/31 03:13:05;;;;;;;;;;;12.40;99.90;;;11.20;100.00;96335.38;10321090;28;1997;-76
2021/12/31 03:18:10;;;;;;;;;;;12.30;99.90;;;11.21;100.00;96331.63;10324474;28;1920;-75
2021/12/31 03:23:14;;;;;;;;;;;12.30;99.90;;;11.20;100.00;96332.69;10314596;28;2069;-75
2021/12/31 03:28:24;;;;;;;;;;;12.30;99.90;;;11.23;100.00;96337.53;10324552;28;2044;-75
2021/12/31 03:33:37;;;;;;;;;;;12.30;99.90;;;11.18;100.00;96332.13;10322147;28;2036;-75
2021/12/31 03:38:40;;;;;;;;;;;12.30;99.90;;;11.18;100.00;96326.75;10321009;28;1989;-75
2021/12/31 03:43:43;;;;;;;;;;;12.20;99.90;;;11.14;100.00;96316.78;10319689;28;1956;-75
2021/12/31 03:48:47;;;;;;;;;;;12.20;99.90;;;11.07;100.00;96315.16;10316484;28;2072;-76
2021/12/31 03:53:50;;;;;;;;;;;12.20;99.90;;;11.03;100.00;96307.84;10320572;28;2084;-75
2021/12/31 03:58:55;;;;;;;;;;;12.10;99.90;;;10.98;100.00;96319.41;10323911;28;1899;-75
2021/12/31 04:03:58;;;;;;;;;;;12.10;99.90;;;10.98;100.00;96313.22;10320419;28;1971;-74
2021/12/31 04:09:02;;;;;;;;;;;12.10;99.90;;;11.01;100.00;96301.94;10323103;28;1930;-74
2021/12/31 04:14:05;;;;;;;;;;;12.10;99.90;;;10.95;100.00;96300.31;10319127;28;2112;-75
2021/12/31 04:19:08;;;;;;;;;;;12.10;99.90;;;10.97;100.00;96300.84;10318767;28;2068;-74
2021/12/31 04:24:26;;;;;;;;;;;12.10;99.90;;;10.94;100.00;96293.28;10316799;28;2086;-74
2021/12/31 04:29:30;;;;;;;;;;;12.10;99.90;;;11.00;100.00;96294.91;10312592;28;2035;-75
2021/12/31 04:34:33;;;;;;;;;;;12.10;99.90;;;11.00;100.00;96286.84;10320151;28;2101;-74
2021/12/31 04:39:35;;;;;;;;;;;12.10;99.90;;;10.99;100.00;96286.03;10319882;28;1925;-74
2021/12/31 04:44:38;;;;;;;;;;;12.10;99.90;;;10.99;100.00;96285.22;10321011;28;1961;-77
2021/12/31 04:49:42;;;;;;;;;;;12.00;99.90;;;11.02;100.00;96287.41;10316207;28;1992;-73
2021/12/31 04:54:45;;;;;;;;;;;12.00;99.90;;;10.96;100.00;96283.09;10316568;28;1973;-74
2021/12/31 04:59:48;;;;;;;;;;;12.00;99.90;;;10.97;100.00;96284.69;10320666;28;1960;-75
2021/12/31 05:04:52;;;;;;;;;;;12.00;99.90;;;10.96;100.00;96288.47;10318341;28;1982;-74
2021/12/31 05:09:55;;;;;;;;;;;12.00;99.90;;;11.00;100.00;96289.53;10316530;28;1969;-76
2021/12/31 05:15:00;;;;;;;;;;;12.00;99.90;;;10.97;100.00;96282.00;10318691;28;1957;-75
2021/12/31 05:20:04;;;;;;;;;;;12.00;99.90;;;10.92;100.00;96282.78;10316709;28;2336;-75
2021/12/31 05:25:07;;;;;;;;;;;12.00;99.90;;;10.91;100.00;96283.88;10315576;28;2167;-74
2021/12/31 05:30:10;;;;;;;;;;;12.00;99.90;;;10.92;100.00;96282.78;10314195;28;2004;-75
2021/12/31 05:35:13;;;;;;;;;;;12.00;99.90;;;10.83;100.00;96279.81;10317590;28;1994;-75
2021/12/31 05:40:17;;;;;;;;;;;11.90;99.90;;;10.53;100.00;96282.34;10317180;28;1988;-75
2021/12/31 05:45:20;;;;;;;;;;;11.80;99.90;;;10.24;100.00;96280.03;10316850;28;1968;-75
2021/12/31 05:50:32;;;;;;;;;;;11.60;99.90;;;10.01;100.00;96277.69;10319026;28;2043;-75
2021/12/31 05:55:35;;;;;;;;;;;11.40;99.90;;;9.95;100.00;96279.50;10311222;28;2012;-74
2021/12/31 06:00:38;;;;;;;;;;;11.20;99.90;;;10.07;100.00;96287.41;10319258;28;2099;-74
2021/12/31 06:05:41;;;;;;;;;;;11.20;99.90;;;10.19;100.00;96289.91;10317608;28;1965;-75
2021/12/31 06:10:44;;;;;;;;;;;11.20;99.90;;;10.21;100.00;96291.25;10316064;28;1923;-74
2021/12/31 06:15:54;;;;;;;;;;;11.30;99.90;;;10.16;100.00;96283.16;10317363;28;1988;-74
2021/12/31 06:20:58;;;;;;;;;;;11.30;99.90;;;10.12;100.00;96279.38;10317610;28;2047;-75
2021/12/31 06:26:01;;;;;;;;;;;11.30;99.90;;;10.15;100.00;96294.16;10327911;28;1977;-75
2021/12/31 06:31:04;;;;;;;;;;;11.30;99.90;;;10.05;100.00;96289.50;10318600;28;1961;-76
2021/12/31 06:36:07;;;;;;;;;;;11.20;99.90;;;10.07;100.00;96295.47;10314906;28;1902;-75
2021/12/31 06:41:11;;;;;;;;;;;11.20;99.90;;;10.02;100.00;96290.03;10308501;28;1968;-74
2021/12/31 06:46:14;;;;;;;;;;;11.20;99.90;;;10.01;100.00;96301.84;10310121;28;2341;-75
2021/12/31 06:51:18;;;;;;;;;;;11.10;99.90;;;9.90;100.00;96309.00;10315009;28;2070;-75
2021/12/31 06:56:21;;;;;;;;;;;11.10;99.90;;;9.95;100.00;96305.56;10315622;28;2042;-75
2021/12/31 07:01:24;;;;;;;;;;;11.10;99.90;;;10.03;100.00;96307.78;10316989;28;1977;-75
2021/12/31 07:06:28;;;;;;;;;;;11.10;99.90;;;10.20;100.00;96297.69;10312444;28;1985;-74
2021/12/31 07:11:31;;;;;;;;;;;11.20;99.90;;;10.15;100.00;96294.16;10314778;28;1976;-74
2021/12/31 07:16:39;;;;;;;;;;;11.20;99.90;;;10.16;100.00;96291.22;10312731;28;2103;-75
2021/12/31 07:21:42;;;;;;;;;;;11.20;99.90;;;10.14;100.00;96292.53;10317236;28;2004;-76
2021/12/31 07:26:45;;;;;;;;;;;11.20;99.90;;;10.14;100.00;96290.66;10323936;28;1918;-75
2021/12/31 07:31:48;;;;;;;;;;;11.20;99.90;;;10.07;100.00;96300.81;10321168;28;2027;-75
2021/12/31 07:36:51;;;;;;;;;;;11.20;99.90;;;9.92;100.00;96295.31;10321908;28;2024;-75
2021/12/31 07:41:54;;;;;;;;;;;11.10;99.90;;;9.78;100.00;96294.94;10315376;28;1957;-76
2021/12/31 07:46:58;;;;;;;;;;;11.00;99.90;;;9.79;100.00;96295.75;10323334;28;2012;-73
2021/12/31 07:52:01;;;;;;;;;;;11.00;99.90;;;9.69;100.00;96288.44;10320567;28;1980;-74
2021/12/31 07:57:04;;;;;;;;;;;10.90;99.90;;;9.65;100.00;96301.53;10320533;28;1993;-75
2021/12/31 08:02:07;;;;;;;;;;;10.90;99.90;;;9.67;100.00;96307.47;10320547;28;2063;-75
2021/12/31 08:07:11;;;;;;;;;;;10.80;99.90;;;9.88;100.00;96304.97;10316934;28;2100;-76
2021/12/31 08:12:13;;;;;;;;;;;10.90;99.90;;;10.14;100.00;96320.22;10317121;28;1973;-73
2021/12/31 08:17:17;;;;;;;;;;;11.00;99.90;;;10.49;100.00;96330.41;10320311;28;1964;-75
2021/12/31 08:22:20;;;;;;;;;;;11.20;99.90;;;10.75;100.00;96314.44;10331041;23;3459;-72
2021/12/31 08:27:23;;;;;;;;;;;11.50;99.90;;;10.93;100.00;96321.25;10320004;28;1910;-72
2021/12/31 08:32:26;;;;;;;;;;;11.70;99.90;;;11.04;100.00;96322.91;10321646;28;1864;-71
2021/12/31 08:37:29;;;;;;;;;;;11.90;99.90;;;11.17;99.65;96327.81;10322363;28;2201;-72
2021/12/31 08:42:33;;;;;;;;;;;12.00;99.90;;;11.28;98.57;96328.66;10318507;28;1849;-71
2021/12/31 08:47:36;;;;;;;;;;;12.10;99.90;;;11.34;98.11;96322.22;10324461;28;1971;-72
2021/12/31 08:52:39;;;;;;;;;;;12.20;99.90;;;11.47;96.84;96321.72;10322645;28;1920;-73
2021/12/31 08:57:43;;;;;;;;;;;12.30;99.90;;;11.59;96.25;96318.78;10322447;28;1841;-70
2021/12/31 09:02:48;;;;;;;;;;;12.40;99.90;;;11.58;95.54;96307.22;10322791;28;1865;-73
2021/12/31 09:07:52;;;;;;;;;;;12.50;99.90;;;11.25;96.69;96303.06;10324158;28;2459;-72
2021/12/31 09:12:56;;;;;;;;;;;12.40;99.90;;;11.13;98.18;96309.75;10320874;28;1907;-72
2021/12/31 09:17:59;;;;;;;;;;;12.30;99.90;;;11.03;99.17;96297.09;10315467;28;1900;-71
2021/12/31 09:23:03;;;;;;;;;;;12.20;99.90;;;10.97;98.96;96300.84;10317309;28;1891;-71
2021/12/31 09:28:06;;;;;;;;;;;12.10;99.90;;;11.03;99.27;96310.56;10311372;28;1852;-71
2021/12/31 09:33:10;;;;;;;;;;;12.10;99.90;;;11.05;99.70;96303.00;10317686;28;1875;-73
2021/12/31 09:38:13;;;;;;;;;;;12.10;99.90;;;11.00;99.24;96303.78;10321053;28;1888;-72
2021/12/31 09:43:16;;;;;;;;;;;12.10;99.90;;;11.04;99.69;96312.16;10314334;28;1983;-71
2021/12/31 09:48:20;;;;;;;;;;;12.10;99.90;;;11.13;98.20;96315.94;10314022;28;1956;-71
2021/12/31 09:53:23;;;;;;;;;;;12.10;99.90;;;11.15;98.74;96313.03;10315142;28;2057;-71
2021/12/31 09:58:27;;;;;;;;;;;12.20;99.90;;;11.28;97.63;96313.34;10317541;28;1829;-71
2021/12/31 10:03:30;;;;;;;;;;;12.20;99.90;;;11.28;97.91;96307.13;10318098;28;1986;-71
2021/12/31 10:08:33;;;;;;;;;;;12.30;99.90;;;11.28;98.67;96310.63;10320961;28;1896;-72
2021/12/31 10:13:37;;;;;;;;;;;12.30;99.90;;;11.53;95.99;96317.16;10318759;28;1690;-70
2021/12/31 10:18:40;;;;;;;;;;;12.40;99.90;;;11.51;95.64;96311.22;10312439;28;1888;-68
2021/12/31 10:23:44;;;;;;;;;;;12.50;99.90;;;11.63;93.88;96309.09;10307830;28;1986;-71
2021/12/31 10:28:47;;;;;;;;;;;12.60;99.90;;;11.49;94.77;96286.47;10318030;28;1891;-70
2021/12/31 10:33:51;;;;;;;;;;;12.60;99.90;;;11.46;93.51;96284.31;10321580;28;1777;-69
2021/12/31 10:38:54;;;;;;;;;;;12.50;99.90;;;11.49;92.60;96281.06;10315275;28;1852;-70
2021/12/31 10:43:58;;;;;;;;;;;12.50;99.90;;;11.56;91.25;96268.16;10314396;28;1983;-71
2021/12/31 10:49:07;;;;;;;;;;;12.60;99.90;;;11.53;92.31;96257.94;10312085;28;1837;-70
2021/12/31 10:54:10;;;;;;;;;;;12.60;99.90;;;11.60;91.07;96248.50;10315336;28;1773;-70
2021/12/31 10:59:14;;;;;;;;;;;12.60;99.90;;;11.59;91.90;96246.09;10333033;28;1537;-69
2021/12/31 11:04:17;;;;;;;;;;;12.60;99.90;;;11.68;90.82;96230.19;10334269;28;2236;-69
2021/12/31 11:09:21;;;;;;;;;;;12.70;99.90;;;11.72;89.38;96229.41;10322862;28;1876;-71
2021/12/31 11:14:25;;;;;;;;;;;12.70;99.90;;;11.80;89.45;96239.63;10319778;28;1932;-70
2021/12/31 11:19:29;;;;;;;;;;;12.80;99.90;;;11.94;87.61;96233.72;10319745;28;2201;-70
2021/12/31 11:24:34;;;;;;;;;;;12.90;99.90;;;11.94;88.08;96225.66;10320528;28;2085;-70
2021/12/31 11:29:37;;;;;;;;;;;12.90;99.90;;;12.02;87.14;96209.72;10323258;28;1869;-69
2021/12/31 11:34:40;;;;;;;;;;;13.00;99.90;;;12.07;87.40;96219.69;10321955;28;1793;-70
2021/12/31 11:39:43;;;;;;;;;;;13.00;99.90;;;12.07;88.46;96214.31;10319091;28;1796;-69
2021/12/31 11:44:47;;;;;;;;;;;13.10;99.90;;;12.23;85.52;96207.81;10322602;28;1914;-70
2021/12/31 11:49:50;;;;;;;;;;;13.10;99.90;;;12.20;85.83;96199.47;10320996;28;1943;-70
2021/12/31 11:54:53;;;;;;;;;;;13.20;99.90;;;12.26;85.91;96198.38;10322550;28;1821;-69
2021/12/31 11:59:56;;;;;;;;;;;13.20;99.90;;;12.26;84.73;96196.47;10323389;28;1852;-70
2021/12/31 12:05:02;;;;;;;;;;;13.30;99.90;;;12.30;83.79;96183.28;10320875;28;1976;-68
2021/12/31 12:10:05;;;;;;;;;;;13.30;99.90;;;12.33;82.73;96172.72;10320802;28;1880;-70
2021/12/31 12:15:08;;;;;;;;;;;13.40;99.90;;;12.42;80.46;96165.72;10318527;28;1832;-70
2021/12/31 12:20:18;;;;;;;;;;;13.40;99.90;;;12.34;80.26;96147.41;10306783;28;1927;-70
2021/12/31 12:25:22;;;;;;;;;;;13.40;99.90;;;12.56;77.89;96138.16;10319022;28;1910;-70
2021/12/31 12:30:26;;;;;;;;;;;13.50;99.90;;;12.58;76.78;96149.47;10312989;28;1869;-69
2021/12/31 12:35:29;;;;;;;;;;;13.50;99.90;;;12.65;75.49;96141.88;10317897;28;1778;-70
2021/12/31 12:40:32;;;;;;;;;;;13.60;99.90;;;12.60;74.64;96133.81;10317658;28;1846;-69
2021/12/31 12:45:35;;;;;;;;;;;13.60;99.90;;;12.62;74.68;96137.03;10319959;28;1914;-69
2021/12/31 12:50:39;;;;;;;;;;;13.70;99.90;;;12.69;72.25;96138.34;10321024;28;1841;-69
2021/12/31 12:55:43;;;;;;;;;;;13.70;99.90;;;12.85;70.14;96144.47;10315891;28;1805;-70
2021/12/31 13:00:47;;;;;;;;;;;13.80;99.90;;;12.88;70.59;96145.81;10330164;28;2206;-69
2021/12/31 13:05:51;;;;;;;;;;;13.90;99.90;;;12.87;70.27;96136.91;10334489;28;1911;-70
2021/12/31 13:10:55;;;;;;;;;;;14.00;99.90;;;12.98;69.41;96146.56;10317145;28;1828;-68
2021/12/31 13:15:58;;;;;;;;;;;13.90;99.90;;;12.81;70.70;96146.13;10321118;28;1844;-69
2021/12/31 13:21:02;;;;;;;;;;;13.90;99.90;;;13.00;70.88;96157.06;10319248;28;1865;-69
2021/12/31 13:26:05;;;;;;;;;;;14.00;99.90;;;13.29;68.46;96151.75;10316261;28;1915;-69
2021/12/31 13:31:09;;;;;;;;;;;14.30;99.90;;;13.22;68.10;96156.66;10319372;28;1892;-68
2021/12/31 13:36:13;;;;;;;;;;;14.30;99.90;;;13.18;66.94;96166.41;10316552;28;1840;-69
2021/12/31 13:41:17;;;;;;;;;;;14.30;99.90;;;13.25;65.37;96173.13;10311347;28;1888;-69
2021/12/31 13:46:21;;;;;;;;;;;14.30;99.90;;;13.24;64.17;96181.50;10317864;28;1972;-70
2021/12/31 13:51:24;;;;;;;;;;;14.40;99.90;;;13.10;64.55;96173.19;10313549;28;1845;-69
2021/12/31 13:56:28;;;;;;;;;;;14.30;99.90;;;12.95;64.97;96179.47;10311926;28;1773;-69
2021/12/31 14:01:32;;;;;;;;;;;14.10;99.90;;;12.88;65.24;96180.88;10316663;28;1860;-70
2021/12/31 14:06:35;;;;;;;;;;;14.00;99.90;;;12.76;65.33;96170.41;10317550;28;1968;-70
2021/12/31 14:11:39;;;;;;;;;;;14.00;99.90;;;12.64;65.57;96178.03;10320327;28;1903;-70
2021/12/31 14:17:03;;;;;;;;;;;13.90;99.90;;;12.57;66.83;96183.72;10319646;28;1884;-68
2021/12/31 14:22:06;;;;;;;;;;;13.80;99.90;;;12.44;67.88;96195.91;10315953;28;2102;-69
2021/12/31 14:27:10;;;;;;;;;;;13.60;99.90;;;12.57;67.04;96205.28;10314148;28;1977;-69
2021/12/31 14:32:13;;;;;;;;;;;13.60;99.90;;;12.53;67.50;96200.72;10320704;28;1869;-70
2021/12/31 14:37:17;;;;;;;;;;;13.70;99.90;;;12.45;67.87;96200.19;10323185;28;1840;-69
2021/12/31 14:42:20;;;;;;;;;;;13.60;99.90;;;12.33;68.21;96210.47;10320773;28;2024;-69
2021/12/31 14:47:24;;;;;;;;;;;13.60;99.90;;;12.25;68.66;96186.78;10347367;23;1969;-77
2021/12/31 14:52:28;;;;;;;;;;;13.50;99.90;;;12.14;69.34;96174.41;10358514;28;1869;-78
2021/12/31 14:57:31;;;;;;;;;;;13.40;99.90;;;12.15;69.86;96163.38;10362018;28;1784;-77
2021/12/31 15:02:35;;;;;;;;;;;13.30;99.90;;;12.20;69.82;96172.50;10354870;28;1828;-78
2021/12/31 15:07:39;;;;;;;;;;;13.30;99.90;;;12.18;69.99;96167.41;10348807;28;1994;-77
2021/12/31 15:12:43;;;;;;;;;;;13.30;99.90;;;12.13;70.45;96167.41;10336967;28;1796;-78
2021/12/31 15:17:46;;;;;;;;;;;13.20;99.90;;;11.94;71.96;96152.91;10342379;28;1833;-78
2021/12/31 15:22:50;;;;;;;;;;;13.10;99.90;;;11.85;74.67;96142.69;10379122;28;1753;-77
2021/12/31 15:27:53;;;;;;;;;;;13.00;99.90;;;11.70;75.35;96126.50;10379626;28;2215;-78
2021/12/31 15:33:01;;;;;;;;;;;12.90;99.90;;;11.67;76.34;96126.25;10357448;28;1881;-79
2021/12/31 15:38:04;;;;;;;;;;;12.90;99.90;;;11.63;76.61;96123.28;10345072;28;1968;-78
2021/12/31 15:43:08;;;;;;;;;;;12.80;99.90;;;11.49;78.16;96114.16;10346206;28;2011;-81
2021/12/31 15:48:11;;;;;;;;;;;12.70;99.90;;;11.29;78.85;96109.59;10354565;28;1899;-80
2021/12/31 15:53:15;;;;;;;;;;;12.60;99.90;;;11.11;80.11;96102.88;10355996;28;1872;-79
2021/12/31 15:58:19;;;;;;;;;;;12.40;99.90;;;10.94;80.42;96105.00;10359230;22;2031;-75
2021/12/31 16:03:23;;;;;;;;;;;12.30;99.90;;;10.74;81.99;96093.13;10321542;28;2158;-76
2021/12/31 16:08:26;;;;;;;;;;;12.10;99.90;;;10.74;82.50;96097.72;10319538;28;1910;-73
2021/12/31 16:13:30;;;;;;;;;;;12.00;99.90;;;10.58;83.60;96099.56;10317848;28;2161;-73
2021/12/31 16:18:36;;;;;;;;;;;11.90;99.90;;;10.55;81.82;96078.59;10314854;28;1832;-75
2021/12/31 16:23:40;;;;;;;;;;;11.80;99.90;;;10.56;80.90;96064.09;10305916;28;2217;-75
2021/12/31 16:28:43;;;;;;;;;;;11.80;99.90;;;10.44;82.30;96071.59;10315484;28;1919;-72
2021/12/31 16:33:46;;;;;;;;;;;11.80;99.90;;;10.31;81.12;96082.81;10326232;28;1942;-73
2021/12/31 16:38:49;;;;;;;;;;;11.70;99.90;;;10.23;80.48;96092.19;10316835;28;1898;-76
2021/12/31 16:43:52;;;;;;;;;;;11.50;99.90;;;10.21;80.26;96091.63;10321966;28;1963;-73
2021/12/31 16:48:56;;;;;;;;;;;11.50;99.90;;;10.33;77.51;96084.19;10310229;28;1964;-75
2021/12/31 16:54:00;;;;;;;;;;;11.50;99.90;;;10.29;76.72;96091.16;10317455;28;2307;-74
2021/12/31 16:59:03;;;;;;;;;;;11.50;99.90;;;10.38;75.32;96096.84;10317560;28;2213;-73
2021/12/31 17:04:06;;;;;;;;;;;11.60;99.90;;;10.42;74.97;96117.53;10327888;28;1914;-75
2021/12/31 17:09:10;;;;;;;;;;;11.70;99.90;;;10.33;75.08;96121.00;10304701;28;1910;-74
2021/12/31 17:14:13;;;;;;;;;;;11.60;99.90;;;9.95;77.17;96118.38;10311257;28;1774;-73
2021/12/31 17:19:17;;;;;;;;;;;11.40;99.90;;;9.67;79.16;96105.31;10310709;28;1865;-75
2021/12/31 17:24:20;;;;;;;;;;;11.20;99.90;;;9.62;78.90;96116.84;10309729;28;1868;-75
2021/12/31 17:29:25;;;;;;;;;;;11.00;99.90;;;9.48;79.13;96119.19;10319226;28;1980;-76
2021/12/31 17:34:28;;;;;;;;;;;10.90;99.90;;;9.53;77.65;96122.94;10313372;28;1907;-76
2021/12/31 17:39:43;;;;;;;;;;;10.90;99.90;;;9.75;74.33;96123.66;10302597;28;1868;-76
2021/12/31 17:44:47;;;;;;;;;;;10.90;99.90;;;9.81;72.89;96138.72;10319247;28;1904;-76
2021/12/31 17:49:50;;;;;;;;;;;11.10;99.90;;;10.00;69.47;96136.41;10339909;28;1993;-75
2021/12/31 17:54:54;;;;;;;;;;;11.10;99.90;;;10.09;68.11;96142.88;10315933;28;1848;-76
2021/12/31 17:59:57;;;;;;;;;;;11.30;99.90;;;10.19;67.29;96139.47;10315843;28;1868;-76
2021/12/31 18:05:00;;;;;;;;;;;11.30;99.90;;;10.18;66.21;96143.19;10316344;28;1817;-76
2021/12/31 18:10:04;;;;;;;;;;;11.30;99.90;;;10.32;64.70;96143.56;10317376;28;1985;-76
2021/12/31 18:15:09;;;;;;;;;;;11.50;99.90;;;10.38;63.32;96162.13;10311004;28;1866;-76
2021/12/31 18:20:13;;;;;;;;;;;11.50;99.90;;;10.39;62.86;96160.25;10309861;28;1855;-76
2021/12/31 18:25:17;;;;;;;;;;;11.60;99.90;;;10.37;62.55;96173.97;10309554;28;1946;-75
2021/12/31 18:30:20;;;;;;;;;;;11.50;99.90;;;10.53;61.33;96182.88;10312105;28;1813;-76
2021/12/31 18:35:24;;;;;;;;;;;11.60;99.90;;;10.51;61.37;96182.34;10316811;28;2189;-76
2021/12/31 18:40:28;;;;;;;;;;;11.70;99.90;;;10.37;61.62;96178.50;10311302;28;1840;-76
2021/12/31 18:45:32;;;;;;;;;;;11.60;99.90;;;10.44;61.73;96195.22;10311392;28;1916;-75
2021/12/31 18:50:43;;;;;;;;;;;11.50;99.90;;;10.46;61.31;96193.06;10313434;28;1877;-74
2021/12/31 18:55:46;;;;;;;;;;;11.60;99.90;;;10.29;61.42;96188.69;10314294;28;1869;-76
2021/12/31 19:00:49;;;;;;;;;;;11.50;99.90;;;10.33;61.55;96197.03;10312485;28;1857;-76
2021/12/31 19:05:53;;;;;;;;;;;11.50;99.90;;;10.54;59.75;96211.38;10313539;28;1914;-76
2021/12/31 19:10:57;;;;;;;;;;;11.60;99.90;;;10.59;60.10;96221.34;10314565;28;2075;-77
2021/12/31 19:16:00;;;;;;;;;;;11.70;99.90;;;10.57;60.44;96237.75;10307580;28;1844;-75
2021/12/31 19:21:08;;;;;;;;;;;11.70;99.90;;;10.80;59.32;96248.03;10318863;28;1864;-75
2021/12/31 19:26:12;;;;;;;;;;;11.90;99.90;;;10.89;59.11;96269.06;10313527;28;1922;-76
2021/12/31 19:31:15;;;;;;;;;;;12.00;99.90;;;10.81;59.76;96290.03;10321701;28;1832;-76
2021/12/31 19:36:18;;;;;;;;;;;12.00;99.90;;;10.85;60.12;96311.00;10320647;28;1765;-75
2021/12/31 19:41:22;;;;;;;;;;;12.00;99.90;;;10.82;59.84;96313.16;10317540;28;1853;-75
2021/12/31 19:46:26;;;;;;;;;;;12.00;99.90;;;10.71;61.20;96333.00;10330558;28;1890;-77
2021/12/31 19:51:29;;;;;;;;;;;12.00;99.90;;;10.63;60.96;96338.88;10316776;28;1833;-77
2021/12/31 19:56:33;;;;;;;;;;;11.90;99.90;;;10.47;62.75;96348.69;10322839;28;1836;-76
2021/12/31 20:01:36;;;;;;;;;;;11.70;99.90;;;10.36;63.01;96373.88;10313325;28;1949;-76
2021/12/31 20:06:40;;;;;;;;;;;11.60;99.90;;;10.25;64.20;96391.00;10313481;28;1918;-76
2021/12/31 20:11:44;;;;;;;;;;;11.60;99.90;;;10.17;64.93;96399.47;10313459;28;1832;-77
2021/12/31 20:16:47;;;;;;;;;;;11.50;99.90;;;10.05;67.09;96413.06;10315439;28;1877;-77
2021/12/31 20:21:51;;;;;;;;;;;11.40;99.90;;;10.15;67.40;96418.53;10310982;28;1910;-76
2021/12/31 20:26:56;;;;;;;;;;;11.30;99.90;;;10.06;68.20;96422.78;10316239;28;1903;-76
2021/12/31 20:32:04;;;;;;;;;;;11.30;99.90;;;10.26;68.36;96436.41;10318924;28;1835;-76
2021/12/31 20:37:10;;;;;;;;;;;11.30;99.90;;;10.25;68.09;96434.81;10317682;28;1884;-76
2021/12/31 20:42:13;;;;;;;;;;;11.40;99.90;;;10.22;68.65;96454.06;10318682;28;1892;-77
2021/12/31 20:47:16;;;;;;;;;;;11.40;99.90;;;10.12;69.59;96461.25;10313582;28;1965;-76
2021/12/31 20:52:20;;;;;;;;;;;11.30;99.90;;;10.07;69.68;96462.00;10316783;28;1788;-76
2021/12/31 20:57:23;;;;;;;;;;;11.20;99.90;;;9.96;70.46;96466.44;10316250;28;1721;-76
2021/12/31 21:02:27;;;;;;;;;;;11.20;99.90;;;9.91;71.12;96470.94;10317770;28;1837;-76
2021/12/31 21:07:31;;;;;;;;;;;11.10;99.90;;;9.86;71.37;96479.78;10316516;28;1906;-76
2021/12/31 21:12:34;;;;;;;;;;;11.00;99.90;;;9.83;71.58;96479.44;10317745;28;1821;-76
2021/12/31 21:17:37;;;;;;;;;;;11.00;99.90;;;9.95;71.56;96461.31;10315771;28;1916;-75
2021/12/31 21:22:41;;;;;;;;;;;11.00;99.90;;;9.95;71.59;96472.06;10313988;28;1832;-76
2021/12/31 21:27:44;;;;;;;;;;;11.10;99.90;;;9.91;72.17;96460.19;10316638;28;1980;-78
2021/12/31 21:32:47;;;;;;;;;;;11.00;99.90;;;9.80;72.08;96463.84;10314270;28;1896;-76
2021/12/31 21:37:51;;;;;;;;;;;11.00;99.90;;;9.99;71.39;96465.16;10334304;28;1861;-75
2021/12/31 21:42:55;;;;;;;;;;;11.00;99.90;;;9.93;71.52;96458.09;10325596;28;1873;-75
2021/12/31 21:47:58;;;;;;;;;;;11.10;99.90;;;9.82;71.47;96461.72;10310907;28;1976;-76
2021/12/31 21:53:02;;;;;;;;;;;11.00;99.90;;;9.74;72.24;96454.94;10316992;28;1785;-77
2021/12/31 21:58:05;;;;;;;;;;;11.00;99.90;;;9.82;71.43;96462.53;10315868;28;1903;-75
2021/12/31 22:03:09;;;;;;;;;;;11.00;99.90;;;9.75;72.03;96461.91;10315045;28;1766;-76
2021/12/31 22:08:13;;;;;;;;;;;10.90;99.90;;;9.83;71.80;96469.53;10315582;28;1906;-75
2021/12/31 22:13:17;;;;;;;;;;;11.00;99.90;;;9.80;72.29;96474.56;10310190;28;2001;-75
2021/12/31 22:18:20;;;;;;;;;;;11.00;99.90;;;9.74;72.79;96479.91;10311992;28;1833;-75
2021/12/31 22:23:24;;;;;;;;;;;11.00;99.90;;;9.69;73.25;96477.16;10307257;28;1911;-76
2021/12/31 22:28:27;;;;;;;;;;;10.90;99.90;;;9.61;73.73;96482.97;10311954;28;1974;-76
2021/12/31 22:33:31;;;;;;;;;;;10.90;99.90;;;9.68;73.54;96488.97;10311752;28;1981;-76
2021/12/31 22:38:34;;;;;;;;;;;10.80;99.90;;;9.65;73.70;96492.13;10310593;28;1881;-76
2021/12/31 22:43:38;;;;;;;;;;;10.80;99.90;;;9.61;74.03;96499.06;10312271;28;1853;-76
2021/12/31 22:48:41;;;;;;;;;;;10.80;99.90;;;9.54;74.61;96498.41;10314967;28;1977;-76
2021/12/31 22:53:45;;;;;;;;;;;10.80;99.90;;;9.44;75.84;96501.00;10320961;28;1818;-77
2021/12/31 22:58:48;;;;;;;;;;;10.70;99.90;;;9.45;75.05;96499.94;10317399;28;1802;-76
2021/12/31 23:03:52;;;;;;;;;;;10.70;99.90;;;9.37;75.78;96511.09;10319662;28;1797;-76
2021/12/31 23:08:55;;;;;;;;;;;10.60;99.90;;;9.37;76.41;96511.09;10321935;28;1960;-77